Flight Track Log - Related Links

Times and Time Zones

All times are in EDT time to prevent confusion due to time zone crossing. See the FLG4164 flight status page for this flight to view local times or setup timezone preferences in your user account.

Time Position Orientation Groundspeed Altitude Reporting Facility
EDT Latitude Longitude Course Direction KTS MPH feet Rate Location/Type
Fri 02:07:37 PM 42.2036 -83.3556 90° East 145 167 1,300  Level Cleveland Center
Fri 02:08:26 PM 42.1661 -83.3622 188° South 183 211 2,500 2,073 Climbing Cleveland Center
Fri 02:09:27 PM 42.1075 -83.3736 188° South 212 244 5,100 2,667 Climbing Cleveland Center
Fri 02:10:00 PM 42.1494 -82.9124 101° East  Level FlightAware Approximate
Fri 02:10:23 PM 42.0556 -83.3658 174° South 235 270 7,700  Level Cleveland Center
Fri 02:11:00 PM 42.1222 -82.7666 114° Southeast  Level FlightAware Approximate
Fri 02:11:24 PM 42.0456 -83.2564 97° East 336 387 9,400  Level Cleveland Center
Fri 02:12:00 PM 42.1035 -82.6183 98° East  Level FlightAware Approximate
Fri 02:12:10 PM 42.0497 -83.1586 87° East 350 403 10,100  Level Cleveland Center
Fri 02:13:00 PM 42.0833 -82.4725 90° East  Level FlightAware Approximate
Fri 02:13:10 PM 42.0592 -83.0164 85° East 367 422 10,400  Level Cleveland Center
Fri 02:14:10 PM 42.0664 -82.8767 86° East 373 429 12,700 2,050 Climbing Cleveland Center
Fri 02:15:10 PM 42.0733 -82.7342 86° East 373 429 14,500 1,800 Climbing Cleveland Center
Fri 02:16:10 PM 42.0819 -82.5919 85° East 378 435 16,300 1,600 Climbing Cleveland Center
Fri 02:17:10 PM 42.0803 -82.4464 91° East 384 442 17,700 1,400 Climbing Cleveland Center
Fri 02:18:10 PM 42.0575 -82.3003 102° East 389 448 19,100 1,300 Climbing Cleveland Center
Fri 02:19:10 PM 42.0367 -82.1517 101° East 389 448 20,300 1,100 Climbing Cleveland Center
Fri 02:20:10 PM 41.9800 -82.0272 121° Southeast 381 438 21,300 950 Climbing Cleveland Center
Fri 02:21:10 PM 41.8914 -81.9417 144° Southeast 381 438 22,200 800 Climbing Cleveland Center
Fri 02:22:10 PM 41.8028 -81.8561 144° Southeast 386 444 22,900 700 Climbing Cleveland Center
Fri 02:23:10 PM 41.7078 -81.7792 149° Southeast 402 463 23,600 550 Climbing Cleveland Center
Fri 02:24:10 PM 41.6189 -81.7081 149° Southeast 402 463 24,000 200 Climbing Cleveland Center
Fri 02:25:10 PM 41.5175 -81.6258 149° Southeast 408 470 24,000  Level Cleveland Center
Fri 02:26:10 PM 41.4225 -81.5328 144° Southeast 425 489 24,000  Level Cleveland Center
Fri 02:27:10 PM 41.3294 -81.4319 141° Southeast 431 496 24,000 200 Level Cleveland Center
Fri 02:28:10 PM 41.2197 -81.3203 143° Southeast 444 511 24,400 500 Climbing Cleveland Center
Fri 02:29:10 PM 41.1222 -81.2197 142° Southeast 451 519 25,000 550 Climbing Cleveland Center
Fri 02:30:10 PM 41.0119 -81.1692 161° South 435 501 25,500 500 Climbing Cleveland Center
Fri 02:31:10 PM 40.9019 -81.1106 158° South 428 493 26,000 500 Climbing Cleveland Center
Fri 02:32:10 PM 40.7917 -81.0547 159° South 433 498 26,500 450 Climbing Cleveland Center
Fri 02:33:10 PM 40.6958 -80.9994 156° South 425 489 26,900 250 Climbing Cleveland Center
Fri 02:34:10 PM 40.5856 -80.9411 158° South 420 483 27,000 50 Climbing Cleveland Center
Fri 02:35:10 PM 40.4753 -80.8861 159° South 420 483 27,000  Level Cleveland Center
Fri 02:36:10 PM 40.3650 -80.8283 158° South 432 497 27,000  Level Cleveland Center
Fri 02:37:10 PM 40.2567 -80.7736 159° South 432 497 27,000  Level Cleveland Center
Fri 02:38:10 PM 40.1464 -80.7161 158° South 432 497 27,000  Level Cleveland Center
Fri 02:39:10 PM 40.0381 -80.6617 159° South 432 497 27,000  Level Cleveland Center
Fri 02:40:10 PM 39.9294 -80.6075 159° South 427 491 27,000  Level Cleveland Center
Fri 02:41:10 PM 39.8211 -80.5506 158° South 427 491 27,000  Level Cleveland Center
Fri 02:42:10 PM 39.7128 -80.4939 158° South 427 491 27,000  Level Cleveland Center
Fri 02:44:00 PM 39.5178 -80.3992 159° South 417 480 27,000  Level Washington Center
Fri 02:44:57 PM 39.4094 -80.3461 159° South 417 480 27,000  Level Washington Center
Fri 02:45:58 PM 39.2950 -80.2878 158° South 425 489 27,000  Level Washington Center
Fri 02:46:58 PM 39.1825 -80.2297 158° South 436 502 27,000  Level Washington Center
Fri 02:47:57 PM 39.0678 -80.1742 159° South 441 507 27,000  Level Washington Center
Fri 02:48:58 PM 38.9531 -80.1217 160° South 441 507 27,000  Level Washington Center
Fri 02:49:58 PM 38.8392 -80.1039 173° South 430 495 27,000  Level Washington Center
Fri 02:50:58 PM 38.7244 -80.1022 179° South 417 480 27,000  Level Washington Center
Fri 02:51:59 PM 38.6017 -80.1000 179° South 412 474 27,000  Level Washington Center
Fri 02:52:59 PM 38.4933 -80.0961 178° South 406 467 27,000  Level Washington Center
Fri 02:54:00 PM 38.3828 -80.0947 179° South 401 461 27,000 -202 Level Washington Center
Fri 02:54:58 PM 38.2722 -80.0933 179° South 401 461 26,600 -712 Descending Washington Center
Fri 02:55:58 PM 38.1703 -80.0897 178° South 406 467 25,600 -793 Descending Washington Center
Fri 02:56:59 PM 38.0575 -80.0908 180° South 406 467 25,000 -303 Descending Washington Center
Fri 02:57:57 PM 37.9492 -80.0872 178° South 401 461 25,000  Level Washington Center
Fri 02:58:58 PM 37.8264 -80.0850 179° South 401 461 25,000  Level Washington Center
Fri 02:59:58 PM 37.7136 -80.0836 179° South 401 461 25,000  Level Washington Center
Fri 03:00:59 PM 37.6058 -80.0692 174° South 401 461 25,000  Level Washington Center
Fri 03:02:00 PM 37.5256 -79.9808 139° Southeast 394 453 25,000  Level Washington Center
Fri 03:02:57 PM 37.4356 -79.8786 138° Southeast 415 478 25,000 -356 Level Washington Center
Fri 03:03:58 PM 37.3372 -79.7661 138° Southeast 435 501 24,300 -738 Descending Washington Center
Fri 03:04:59 PM 37.2511 -79.6650 137° Southeast 435 501 23,500 -893 Descending Washington Center
Fri 03:05:59 PM 37.1647 -79.5664 138° Southeast 428 493 22,500 -1,000 Descending Washington Center
Fri 03:06:59 PM 37.0881 -79.4817 139° Southeast 422 486 21,500 -1,017 Descending Washington Center
Fri 03:07:57 PM 36.9947 -79.4017 146° Southeast 417 480 20,500 -1,210 Descending Washington Center
Fri 03:08:58 PM 36.9011 -79.3294 148° Southeast 406 467 19,100 -1,537 Descending Washington Center
Fri 03:09:58 PM 36.7992 -79.2494 148° Southeast 400 460 17,400 -1,636 Descending Washington Center
Fri 03:10:59 PM 36.7117 -79.1806 148° Southeast 387 445 15,800 -1,563 Descending Washington Center
Fri 03:11:57 PM 36.6258 -79.1169 149° Southeast 382 440 14,300 -1,550 Descending Washington Center
Fri 03:12:59 PM 36.5422 -79.0511 148° Southeast 362 417 12,700 -1,630 Descending Washington Center
Fri 03:13:18 PM 36.5156 -79.0292 147° Southeast 357 411 12,100 -1,714 Descending Washington Center
Fri 03:13:48 PM 36.4686 -78.9936 149° Southeast 357 411 11,300 -1,320 Descending Washington Center
Fri 03:14:58 PM 36.3892 -78.9281 146° Southeast 348 400 9,900 -1,180 Descending Washington Center
Fri 03:15:50 PM 36.3281 -78.8714 143° Southeast 270 311 8,900 -1,018 Descending Washington Center
Fri 03:16:50 PM 36.2650 -78.8147 144° Southeast 273 314 8,000 -689 Descending Washington Center
Fri 03:17:52 PM 36.2058 -78.7633 145° Southeast 236 272 7,500 -441 Descending Washington Center
Fri 03:17:58 PM 36.2058 -78.7633 145° Southeast 260 299 7,500 -1,377 Level Washington Center
Fri 03:18:53 PM 36.1550 -78.7150 142° Southeast 228 262 6,100 -1,328 Descending Washington Center
Fri 03:20:00 PM 36.0908 -78.6944 165° South 222 255 4,800 -1,587 Descending Washington Center
Fri 03:20:54 PM 36.0350 -78.6794 168° South 220 253 2,900 -1,461 Descending Washington Center
Fri 03:21:55 PM 35.9764 -78.6797 180° South 202 232 2,000 -885 Descending Washington Center

Login

Don't have an account? Register now (free) for customized features, flight alerts, and more!